Time;durP1;ratioP1;P1;durP2;ratioP2;P2;SDS_P1;SDS_P2;PMS_P1;PMS_P2;Temp;Humidity;BMP_temperature;BMP_pressure;BME280_temperature;BME280_humidity;BME280_pressure;Samples;Min_cycle;Max_cycle;Signal;HPM_P1;HPM_P2
2021/12/04 00:00:41;;;;;;;5.30;4.40;;;;;;;5.53;100.00;100403.17;1687951;83;21051;-68
2021/12/04 00:03:04;;;;;;;5.22;4.35;;;;;;;5.43;100.00;100416.59;1682657;84;21392;-68
2021/12/04 00:05:33;;;;;;;4.80;3.80;;;;;;;5.29;100.00;100418.23;1664790;84;21023;-68
2021/12/04 00:08:00;;;;;;;5.40;4.10;;;;;;;5.14;100.00;100423.67;1688005;84;21522;-68
2021/12/04 00:10:30;;;;;;;5.40;4.03;;;;;;;5.05;100.00;100416.22;1677368;84;21081;-68
2021/12/04 00:12:57;;;;;;;5.42;3.72;;;;;;;5.10;100.00;100404.20;1682928;84;21518;-68
2021/12/04 00:15:24;;;;;;;6.03;4.50;;;;;;;4.96;100.00;100403.24;1675906;85;21114;-67
2021/12/04 00:17:51;;;;;;;6.65;5.15;;;;;;;4.85;100.00;100406.48;1679138;85;21063;-69
2021/12/04 00:20:18;;;;;;;9.43;5.60;;;;;;;4.62;100.00;100400.14;1676031;84;21313;-69
2021/12/04 00:22:45;;;;;;;7.65;4.95;;;;;;;4.60;100.00;100408.27;1673170;83;21185;-68
2021/12/04 00:25:12;;;;;;;11.95;6.92;;;;;;;4.58;100.00;100412.14;1617721;87;21584;-69
2021/12/04 00:27:39;;;;;;;9.43;6.03;;;;;;;4.42;100.00;100413.33;1606491;88;21896;-68
2021/12/04 00:30:09;;;;;;;9.45;6.20;;;;;;;4.43;100.00;100405.24;1683478;84;21094;-68
2021/12/04 00:32:40;;;;;;;8.30;5.80;;;;;;;4.44;100.00;100400.13;1688986;83;21023;-69
2021/12/04 00:35:20;;;;;;;7.80;5.65;;;;;;;4.55;100.00;100400.72;1677179;83;21048;-67
2021/12/04 00:51:18;;;;;;;19.77;10.70;;;;;;;4.45;100.00;100431.09;1683792;84;21619;-68
2021/12/04 00:53:47;;;;;;;21.48;10.90;;;;;;;4.42;100.00;100429.90;1680961;84;21132;-69
2021/12/04 00:56:15;;;;;;;22.60;12.70;;;;;;;4.38;100.00;100438.47;1648784;84;21121;-70
2021/12/04 00:58:41;;;;;;;25.08;13.72;;;;;;;4.17;100.00;100436.72;1677881;84;21050;-69
2021/12/04 01:01:09;;;;;;;24.35;13.80;;;;;;;4.21;100.00;100424.33;1695619;83;21098;-69
2021/12/04 01:03:36;;;;;;;23.05;13.08;;;;;;;4.27;100.00;100427.64;1685358;84;21066;-69
2021/12/04 01:06:06;;;;;;;26.45;13.68;;;;;;;4.35;100.00;100420.23;1694704;83;21106;-69
2021/12/04 01:08:33;;;;;;;24.65;13.55;;;;;;;4.36;100.00;100421.07;1690948;83;21034;-69
2021/12/04 01:11:02;;;;;;;24.95;14.35;;;;;;;4.45;100.00;100427.27;1688242;84;21559;-70
2021/12/04 01:13:30;;;;;;;28.02;14.47;;;;;;;4.37;100.00;100427.86;1692818;83;21097;-69
2021/12/04 01:15:57;;;;;;;30.40;16.15;;;;;;;4.40;100.00;100426.54;1695778;84;21079;-71
2021/12/04 01:18:25;;;;;;;27.15;14.38;;;;;;;4.39;100.00;100423.13;1691156;83;21115;-71
2021/12/04 01:20:52;;;;;;;29.45;15.93;;;;;;;4.36;100.00;100437.22;1675587;84;21598;-69
2021/12/04 01:23:19;;;;;;;29.40;15.85;;;;;;;4.38;100.00;100454.59;1697088;83;21130;-71
2021/12/04 01:25:46;;;;;;;35.85;17.87;;;;;;;4.38;100.00;100450.77;1689701;84;21058;-70
2021/12/04 01:28:13;;;;;;;37.17;19.75;;;;;;;4.37;100.00;100447.81;1694260;84;21126;-70
2021/12/04 01:30:41;;;;;;;36.10;18.98;;;;;;;4.30;100.00;100449.22;1680941;84;21027;-70
2021/12/04 01:33:09;;;;;;;38.35;19.67;;;;;;;4.26;100.00;100443.37;1685077;84;21082;-71
2021/12/04 01:35:35;;;;;;;41.35;21.33;;;;;;;4.31;100.00;100425.44;1695820;83;21104;-70
2021/12/04 01:38:02;;;;;;;47.73;23.77;;;;;;;4.28;100.00;100417.42;1698695;83;21049;-71
2021/12/04 01:40:29;;;;;;;44.42;22.45;;;;;;;4.27;100.00;100409.80;1680764;84;21062;-70
2021/12/04 01:42:56;;;;;;;51.85;23.98;;;;;;;4.28;100.00;100419.11;1680926;84;21056;-69
2021/12/04 01:45:23;;;;;;;51.55;24.45;;;;;;;4.29;100.00;100441.19;1678124;84;21166;-70
2021/12/04 01:47:54;;;;;;;56.85;25.50;;;;;;;4.34;100.00;100435.55;1677966;84;21117;-70
2021/12/04 01:50:22;;;;;;;47.35;23.45;;;;;;;4.38;100.00;100434.66;1674642;84;21058;-70
2021/12/04 01:52:49;;;;;;;47.67;22.45;;;;;;;4.40;100.00;100426.54;1679338;84;21035;-69
2021/12/04 01:55:15;;;;;;;47.62;23.62;;;;;;;4.38;100.00;100425.73;1692762;84;21588;-70
2021/12/04 01:57:42;;;;;;;48.25;24.35;;;;;;;4.40;100.00;100429.92;1692167;84;21087;-70
2021/12/04 02:00:11;;;;;;;45.30;22.35;;;;;;;4.43;100.00;100439.20;1680924;84;21036;-70
2021/12/04 02:02:41;;;;;;;43.48;22.05;;;;;;;4.45;100.00;100453.20;1684171;83;21058;-69
2021/12/04 02:05:09;;;;;;;41.28;21.00;;;;;;;4.40;100.00;100452.86;1678526;84;21084;-70
2021/12/04 02:07:35;;;;;;;38.65;19.85;;;;;;;4.40;100.00;100463.05;1678184;84;21098;-69
2021/12/04 02:10:05;;;;;;;34.45;18.52;;;;;;;4.41;100.00;100469.81;1675118;84;21093;-70
2021/12/04 02:12:33;;;;;;;32.78;17.85;;;;;;;4.48;100.00;100478.62;1688374;84;21504;-69
2021/12/04 02:14:59;;;;;;;31.55;16.85;;;;;;;4.48;100.00;100481.16;1696369;84;21095;-70
2021/12/04 02:17:26;;;;;;;33.33;17.05;;;;;;;4.38;100.00;100488.17;1685467;84;21161;-69
2021/12/04 02:19:53;;;;;;;35.48;17.98;;;;;;;4.35;100.00;100482.67;1678735;84;21572;-69
2021/12/04 02:22:19;;;;;;;42.03;21.10;;;;;;;4.34;100.00;100489.94;1672910;84;21085;-70
2021/12/04 02:24:46;;;;;;;42.78;22.13;;;;;;;4.26;100.00;100496.02;1621346;87;21121;-69
2021/12/04 02:27:13;;;;;;;47.48;24.00;;;;;;;4.25;100.00;100513.46;1668507;85;21038;-69
2021/12/04 02:29:48;;;;;;;51.37;24.40;;;;;;;4.23;100.00;100524.11;1669110;84;21054;-70
2021/12/04 02:32:18;;;;;;;40.38;20.45;;;;;;;4.29;100.00;100539.30;1671706;85;21062;-70
2021/12/04 02:34:45;;;;;;;28.67;15.20;;;;;;;4.30;100.00;100548.61;1662978;85;21566;-70
2021/12/04 02:37:13;;;;;;;20.90;12.10;;;;;;;4.23;100.00;100567.43;1691111;84;21022;-71
2021/12/04 02:39:44;;;;;;;16.35;10.48;;;;;;;4.31;100.00;100552.41;1680185;84;21100;-71
2021/12/04 02:42:21;;;;;;;16.42;10.25;;;;;;;4.33;100.00;100526.91;1681784;84;21559;-71
2021/12/04 02:44:49;;;;;;;14.93;10.35;;;;;;;4.36;100.00;100544.67;1686742;84;21031;-71
2021/12/04 02:47:17;;;;;;;18.30;11.73;;;;;;;4.46;100.00;100561.92;1681863;84;21011;-70
2021/12/04 02:49:44;;;;;;;17.20;11.33;;;;;;;4.41;100.00;100563.28;1610170;87;21060;-71
2021/12/04 02:52:13;;;;;;;13.93;9.83;;;;;;;4.39;100.00;100577.32;1615319;87;21148;-71
2021/12/04 02:54:40;;;;;;;14.47;9.75;;;;;;;4.33;100.00;100571.06;1615646;87;21104;-71
2021/12/04 02:57:11;;;;;;;15.80;10.58;;;;;;;4.40;100.00;100584.56;1613872;87;21125;-71
2021/12/04 02:59:41;;;;;;;15.25;9.35;;;;;;;4.44;100.00;100584.91;1675043;84;22561;-71
2021/12/04 03:02:21;;;;;;;15.13;9.65;;;;;;;4.40;100.00;100584.12;1614091;87;21100;-71
2021/12/04 03:04:40;;;;;;;13.83;9.63;;;;;;;4.39;100.00;100599.43;1613504;88;21081;-71
2021/12/04 03:07:07;;;;;;;12.45;9.38;;;;;;;4.38;100.00;100606.24;1613785;88;21577;-71
2021/12/04 03:09:35;;;;;;;13.20;9.45;;;;;;;4.29;100.00;100601.73;1613412;87;21081;-71
2021/12/04 03:12:04;;;;;;;13.38;9.35;;;;;;;4.30;100.00;100602.12;1664332;85;21027;-71
2021/12/04 03:14:34;;;;;;;13.30;9.23;;;;;;;4.31;100.00;100605.09;1682035;83;21507;-71
2021/12/04 03:17:01;;;;;;;11.95;9.65;;;;;;;4.33;100.00;100618.65;1676519;84;21035;-71
2021/12/04 03:19:28;;;;;;;11.75;9.03;;;;;;;4.42;100.00;100618.51;1679315;84;21047;-71
2021/12/04 03:21:56;;;;;;;12.75;9.75;;;;;;;4.41;100.00;100616.81;1673910;84;21082;-71
2021/12/04 03:24:24;;;;;;;14.18;9.75;;;;;;;4.44;100.00;100620.59;1662060;84;21090;-72
2021/12/04 03:26:53;;;;;;;13.25;9.75;;;;;;;4.44;100.00;100615.50;1674694;84;21578;-71
2021/12/04 03:29:23;;;;;;;14.58;10.05;;;;;;;4.53;100.00;100613.22;1684862;84;21015;-71
2021/12/04 03:42:27;;;;;;;14.28;10.60;;;;;;;4.45;100.00;100608.69;1673711;84;21146;-72
2021/12/04 03:44:55;;;;;;;18.17;11.18;;;;;;;4.44;100.00;100598.93;1614288;88;21112;-72
2021/12/04 03:47:23;;;;;;;13.38;9.45;;;;;;;4.45;100.00;100604.42;1614086;87;21596;-71
2021/12/04 03:49:51;;;;;;;13.45;10.23;;;;;;;4.43;100.00;100595.12;1648428;86;21128;-71
2021/12/04 03:52:18;;;;;;;13.95;9.93;;;;;;;4.42;100.00;100594.30;1647772;86;21141;-72
2021/12/04 03:54:45;;;;;;;13.78;10.48;;;;;;;4.38;100.00;100594.77;1690842;84;21091;-71
2021/12/04 03:57:12;;;;;;;14.03;10.10;;;;;;;4.40;100.00;100595.59;1682312;84;21094;-72
2021/12/04 03:59:46;;;;;;;17.42;10.53;;;;;;;4.38;100.00;100601.59;1687908;83;21109;-71
2021/12/04 04:02:15;;;;;;;15.08;10.20;;;;;;;4.31;100.00;100602.09;1614206;87;21072;-72
2021/12/04 04:04:43;;;;;;;14.78;10.32;;;;;;;4.28;100.00;100593.66;1614313;88;21108;-72
2021/12/04 04:07:11;;;;;;;15.75;10.65;;;;;;;4.27;100.00;100591.55;1613444;87;21077;-72
2021/12/04 04:09:39;;;;;;;14.80;10.70;;;;;;;4.29;100.00;100588.98;1618033;87;21544;-72
2021/12/04 04:12:06;;;;;;;14.25;10.82;;;;;;;4.25;100.00;100593.28;1614490;88;21537;-70
2021/12/04 04:14:36;;;;;;;13.98;10.08;;;;;;;4.29;100.00;100597.91;1690673;84;21050;-69
2021/12/04 04:17:05;;;;;;;14.45;10.15;;;;;;;4.27;100.00;100591.99;1685759;84;21106;-69
2021/12/04 04:19:32;;;;;;;14.30;10.63;;;;;;;4.26;100.00;100603.03;1659423;85;21602;-71
2021/12/04 04:21:58;;;;;;;13.72;10.35;;;;;;;4.26;100.00;100607.72;1679458;84;21584;-71
2021/12/04 04:24:28;;;;;;;16.50;10.95;;;;;;;4.26;100.00;100610.27;1698163;84;21150;-72
2021/12/04 04:26:55;;;;;;;16.02;11.00;;;;;;;4.31;100.00;100606.36;1688865;84;21090;-71
2021/12/04 04:29:22;;;;;;;15.85;11.03;;;;;;;4.29;100.00;100599.17;1680451;84;21522;-72
2021/12/04 04:31:49;;;;;;;16.35;11.68;;;;;;;4.32;100.00;100598.70;1692167;84;21055;-72
2021/12/04 04:34:26;;;;;;;17.25;11.95;;;;;;;4.33;100.00;100600.81;1673021;85;21060;-71
2021/12/04 04:37:08;;;;;;;16.12;11.10;;;;;;;4.29;100.00;100608.92;1676602;85;21106;-71
2021/12/04 04:59:42;;;;;;;25.80;16.50;;;;;;;4.32;100.00;100647.53;1675882;84;21087;-71
2021/12/04 05:12:46;;;;;;;46.77;24.25;;;;;;;4.36;100.00;100674.64;1693277;84;22016;-71
2021/12/04 05:15:01;;;;;;;49.38;25.80;;;;;;;4.36;100.00;100681.02;1669911;84;21189;-71
2021/12/04 05:17:31;;;;;;;52.40;26.80;;;;;;;4.34;100.00;100677.66;1677533;84;21629;-71
2021/12/04 05:19:56;;;;;;;52.35;26.82;;;;;;;4.33;100.00;100689.56;1658658;85;21059;-71
2021/12/04 05:22:24;;;;;;;45.98;24.52;;;;;;;4.31;100.00;100691.30;1674593;84;21550;-71
2021/12/04 05:24:51;;;;;;;42.33;24.05;;;;;;;4.31;100.00;100700.22;1677961;84;21106;-71
2021/12/04 05:27:18;;;;;;;41.90;23.27;;;;;;;4.29;100.00;100698.13;1619846;87;21052;-71
2021/12/04 05:29:46;;;;;;;42.15;23.22;;;;;;;4.35;100.00;100703.56;1615399;88;21073;-71
2021/12/04 05:32:15;;;;;;;35.17;20.35;;;;;;;4.38;100.00;100713.28;1674063;84;21543;-71
2021/12/04 05:34:42;;;;;;;31.27;19.70;;;;;;;4.40;100.00;100721.75;1613877;88;21540;-71
2021/12/04 05:37:09;;;;;;;33.83;19.98;;;;;;;4.40;100.00;100729.84;1613470;89;21026;-71
2021/12/04 05:39:35;;;;;;;36.33;20.25;;;;;;;4.42;100.00;100728.11;1620255;87;21061;-71
2021/12/04 05:42:02;;;;;;;33.00;20.05;;;;;;;4.48;100.00;100717.81;1614059;88;21022;-71
2021/12/04 05:44:31;;;;;;;34.95;20.62;;;;;;;4.40;100.00;100723.02;1683864;83;21511;-71
2021/12/04 05:47:02;;;;;;;35.23;19.50;;;;;;;4.37;100.00;100722.22;1692781;84;21030;-71
2021/12/04 05:49:36;;;;;;;31.07;18.35;;;;;;;4.28;100.00;100729.99;1674571;84;21541;-71
2021/12/04 05:54:45;;;;;;;30.72;18.45;;;;;;;4.33;100.00;100730.34;1673753;85;21015;-70
2021/12/04 05:57:02;;;;;;;31.90;18.95;;;;;;;4.32;100.00;100726.53;1628896;87;21530;-71
2021/12/04 05:59:29;;;;;;;31.17;17.35;;;;;;;4.31;100.00;100728.25;1640124;87;21072;-71
2021/12/04 06:01:56;;;;;;;28.20;17.67;;;;;;;4.31;100.00;100726.97;1671401;83;21555;-70
2021/12/04 06:04:24;;;;;;;30.25;17.95;;;;;;;4.36;100.00;100726.48;1684799;83;21086;-71
2021/12/04 06:06:52;;;;;;;25.77;17.67;;;;;;;4.41;100.00;100723.86;1678006;83;21105;-71
2021/12/04 06:09:20;;;;;;;27.58;16.77;;;;;;;4.35;100.00;100717.14;1614475;87;21076;-70
2021/12/04 06:11:47;;;;;;;27.00;16.95;;;;;;;4.34;100.00;100727.35;1664413;85;21091;-70
2021/12/04 06:14:15;;;;;;;25.17;16.82;;;;;;;4.35;100.00;100731.16;1662651;85;21058;-71
2021/12/04 06:16:42;;;;;;;28.32;17.10;;;;;;;4.36;100.00;100734.12;1662781;84;21090;-71
2021/12/04 06:19:12;;;;;;;26.87;16.17;;;;;;;4.43;100.00;100727.23;1688609;84;21047;-71
2021/12/04 06:24:23;;;;;;;18.30;13.50;;;;;;;4.48;100.00;100728.02;1669815;83;21032;-69
2021/12/04 06:26:50;;;;;;;16.50;11.60;;;;;;;4.39;100.00;100734.07;1617886;88;21121;-70
2021/12/04 06:29:17;;;;;;;16.12;11.45;;;;;;;4.36;100.00;100734.12;1614139;87;21092;-70
2021/12/04 06:31:44;;;;;;;16.93;11.38;;;;;;;4.36;100.00;100737.09;1691237;83;21106;-71
2021/12/04 06:34:12;;;;;;;14.55;11.10;;;;;;;4.36;100.00;100737.09;1664415;84;21545;-70
2021/12/04 06:36:39;;;;;;;15.93;12.07;;;;;;;4.43;100.00;100741.69;1662864;85;21126;-71
2021/12/04 06:39:06;;;;;;;15.63;11.18;;;;;;;4.41;100.00;100744.25;1618252;88;21045;-70
2021/12/04 06:41:33;;;;;;;15.40;11.35;;;;;;;4.39;100.00;100744.70;1623466;87;21105;-70
2021/12/04 06:43:59;;;;;;;16.45;11.70;;;;;;;4.45;100.00;100745.05;1613934;87;21064;-70
2021/12/04 06:46:27;;;;;;;16.77;11.70;;;;;;;4.52;100.00;100746.63;1616956;86;21084;-70
2021/12/04 06:49:03;;;;;;;15.20;10.60;;;;;;;4.55;100.00;100758.91;1617303;87;21064;-70
2021/12/04 06:51:27;;;;;;;19.52;11.50;;;;;;;4.50;100.00;100758.55;1614925;87;21072;-70
2021/12/04 06:54:00;;;;;;;19.32;11.10;;;;;;;4.53;100.00;100758.08;1666872;85;21653;-70
2021/12/04 06:56:31;;;;;;;16.67;11.33;;;;;;;4.57;100.00;100762.71;1664450;85;21547;-69
2021/12/04 06:58:54;;;;;;;16.07;11.28;;;;;;;4.58;100.00;100762.70;1673662;84;21054;-69
2021/12/04 07:01:21;;;;;;;15.53;11.08;;;;;;;4.61;100.00;100767.73;1673207;84;21054;-70
2021/12/04 07:03:51;;;;;;;15.95;10.68;;;;;;;4.58;100.00;100774.58;1668339;85;21484;-69
2021/12/04 07:06:18;;;;;;;14.68;11.15;;;;;;;4.64;100.00;100779.58;1673492;84;21071;-70
2021/12/04 07:08:44;;;;;;;14.85;11.08;;;;;;;4.70;100.00;100783.75;1673679;85;21023;-70
2021/12/04 07:11:12;;;;;;;16.07;11.57;;;;;;;4.67;100.00;100786.37;1674246;86;21038;-70
2021/12/04 07:13:38;;;;;;;18.60;12.20;;;;;;;4.72;100.00;100780.75;1638470;86;21618;-70
2021/12/04 07:16:06;;;;;;;16.23;11.18;;;;;;;4.70;100.00;100779.93;1639059;87;21042;-70
2021/12/04 07:18:35;;;;;;;15.40;10.60;;;;;;;4.70;100.00;100784.59;1662931;85;21066;-70
2021/12/04 07:21:03;;;;;;;14.45;10.82;;;;;;;4.73;100.00;100786.27;1640067;87;21071;-69
2021/12/04 07:23:32;;;;;;;15.45;10.90;;;;;;;4.72;100.00;100788.39;1638855;86;21794;-70
2021/12/04 07:25:58;;;;;;;15.15;10.38;;;;;;;4.76;100.00;100781.11;1634148;86;21572;-69
2021/12/04 07:28:25;;;;;;;15.72;10.65;;;;;;;4.76;100.00;100778.56;1633907;87;21105;-69
2021/12/04 07:30:53;;;;;;;18.20;11.57;;;;;;;4.93;100.00;100784.69;1662843;86;21588;-69
2021/12/04 07:33:20;;;;;;;16.80;11.57;;;;;;;5.06;100.00;100785.31;1673933;85;21604;-69
2021/12/04 07:35:46;;;;;;;17.02;11.53;;;;;;;5.10;100.00;100788.22;1673178;84;21062;-70
2021/12/04 07:38:14;;;;;;;15.88;10.90;;;;;;;5.14;100.00;100779.20;1674917;84;21547;-69
2021/12/04 07:40:43;;;;;;;14.55;10.90;;;;;;;5.27;100.00;100781.54;1674751;84;21110;-70
2021/12/04 07:43:12;;;;;;;16.25;10.88;;;;;;;5.19;100.00;100774.88;1674028;84;21095;-69
2021/12/04 07:45:40;;;;;;;16.97;11.28;;;;;;;5.24;100.00;100773.95;1674066;85;21578;-70
2021/12/04 07:48:08;;;;;;;14.93;10.40;;;;;;;5.26;100.00;100776.05;1644892;86;21109;-70
2021/12/04 07:50:37;;;;;;;14.00;9.65;;;;;;;5.30;100.00;100777.67;1674119;85;21078;-70
2021/12/04 07:53:04;;;;;;;14.85;10.43;;;;;;;5.37;100.00;100781.37;1671025;84;21085;-69
2021/12/04 07:55:32;;;;;;;18.02;12.50;;;;;;;5.47;100.00;100786.28;1673690;85;21665;-70
2021/12/04 07:57:59;;;;;;;19.40;12.20;;;;;;;5.54;100.00;100787.88;1674150;84;21537;-70
2021/12/04 08:00:27;;;;;;;19.40;12.37;;;;;;;5.42;100.00;100794.04;1662872;85;21076;-69
2021/12/04 08:02:53;;;;;;;15.40;10.78;;;;;;;5.37;100.00;100785.20;1646588;86;20984;-69
2021/12/04 08:05:20;;;;;;;16.12;10.72;;;;;;;5.34;100.00;100782.69;1669887;85;21023;-70
2021/12/04 08:07:47;;;;;;;16.40;11.28;;;;;;;5.38;100.00;100783.03;1673764;85;21073;-69
2021/12/04 08:10:17;;;;;;;16.07;10.80;;;;;;;5.33;100.00;100777.59;1673628;86;21126;-69
2021/12/04 08:12:45;;;;;;;17.48;10.05;;;;;;;5.39;100.00;100777.48;1670588;86;21098;-69
2021/12/04 08:15:14;;;;;;;17.67;11.28;;;;;;;5.44;100.00;100768.48;1677618;84;21008;-69
2021/12/04 08:17:43;;;;;;;17.17;11.90;;;;;;;5.35;100.00;100757.58;1674988;84;21018;-69
2021/12/04 08:20:14;;;;;;;14.87;10.90;;;;;;;5.33;100.00;100754.21;1672706;84;21056;-71
2021/12/04 08:22:42;;;;;;;14.70;10.72;;;;;;;5.39;100.00;100754.09;1673274;84;21062;-70
2021/12/04 08:25:12;;;;;;;15.03;10.85;;;;;;;5.33;100.00;100747.83;1673405;84;20992;-69
2021/12/04 08:27:40;;;;;;;17.17;11.73;;;;;;;5.27;100.00;100745.39;1677740;84;21027;-70
2021/12/04 08:30:12;;;;;;;15.35;11.08;;;;;;;5.11;100.00;100737.17;1674667;84;21034;-69
2021/12/04 08:32:40;;;;;;;16.82;11.43;;;;;;;5.09;100.00;100732.53;1674052;86;21081;-69
2021/12/04 08:35:10;;;;;;;20.00;12.00;;;;;;;5.01;100.00;100736.48;1673107;84;21008;-69
2021/12/04 08:37:37;;;;;;;16.67;12.28;;;;;;;5.12;100.00;100743.94;1666380;84;21031;-68
2021/12/04 08:40:10;;;;;;;17.85;12.78;;;;;;;5.17;100.00;100741.30;1670777;85;21033;-69
2021/12/04 08:42:35;;;;;;;17.57;12.23;;;;;;;5.16;100.00;100734.08;1666225;86;21071;-70
2021/12/04 08:45:03;;;;;;;15.40;11.10;;;;;;;5.16;100.00;100730.70;1667087;84;21094;-69
2021/12/04 08:47:30;;;;;;;22.55;13.93;;;;;;;5.22;100.00;100729.31;1673600;85;21034;-69
2021/12/04 08:49:57;;;;;;;23.85;14.18;;;;;;;5.26;100.00;100719.89;1639583;86;21077;-69
2021/12/04 08:52:23;;;;;;;22.77;14.63;;;;;;;5.30;100.00;100715.97;1637049;86;20960;-68
2021/12/04 08:54:50;;;;;;;21.52;14.45;;;;;;;5.30;100.00;100710.03;1638291;87;21643;-68
2021/12/04 08:57:17;;;;;;;24.00;15.40;;;;;;;5.24;100.00;100707.15;1636686;87;21043;-69
2021/12/04 08:59:47;;;;;;;25.45;16.87;;;;;;;5.36;100.00;100703.08;1639250;87;21048;-69
2021/12/04 09:02:12;;;;;;;26.57;16.75;;;;;;;5.33;100.00;100701.02;1639214;87;21098;-69
2021/12/04 09:04:40;;;;;;;24.90;15.10;;;;;;;5.23;100.00;100695.24;1613865;89;21047;-69
2021/12/04 09:07:10;;;;;;;27.75;16.02;;;;;;;5.17;100.00;100696.23;1612423;87;21074;-69
2021/12/04 09:09:37;;;;;;;27.50;17.12;;;;;;;5.25;100.00;100691.39;1638507;86;20972;-69
2021/12/04 09:12:08;;;;;;;29.48;17.25;;;;;;;5.13;100.00;100689.50;1635119;87;21416;-69
2021/12/04 09:14:40;;;;;;;29.50;17.98;;;;;;;4.99;100.00;100692.73;1632766;86;21047;-69
2021/12/04 09:17:10;;;;;;;33.30;18.37;;;;;;;5.05;100.00;100694.31;1638149;87;21063;-69
2021/12/04 09:19:36;;;;;;;27.77;18.15;;;;;;;5.13;100.00;100686.08;1630140;86;21607;-69
2021/12/04 09:22:16;;;;;;;28.27;17.73;;;;;;;5.17;100.00;100680.91;1662389;85;21043;-69
2021/12/04 09:24:45;;;;;;;30.37;17.67;;;;;;;5.21;100.00;100682.95;1659031;85;21044;-69
2021/12/04 10:04:21;;;;;;;24.32;13.93;;;;;;;5.65;100.00;100679.95;1664581;86;21561;-68
2021/12/04 10:12:42;;;;;;;22.00;13.55;;;;;;;5.35;100.00;100671.20;1651926;85;21547;-68
2021/12/04 10:24:28;;;;;;;18.35;11.05;;;;;;;5.12;100.00;100649.52;1637162;87;21174;-68
2021/12/04 10:34:29;;;;;;;22.85;13.25;;;;;;;5.23;100.00;100640.37;1661481;86;21083;-69
2021/12/04 10:37:09;;;;;;;22.42;13.75;;;;;;;5.23;100.00;100635.27;1662047;86;21020;-68
2021/12/04 10:39:36;;;;;;;23.12;13.55;;;;;;;5.21;100.00;100634.45;1651605;85;21083;-68
2021/12/04 10:42:09;;;;;;;21.27;13.98;;;;;;;5.13;100.00;100629.53;1663640;85;21107;-68
2021/12/04 10:44:41;;;;;;;21.65;14.07;;;;;;;5.19;100.00;100621.75;1662728;85;21047;-68
2021/12/04 10:47:21;;;;;;;21.62;13.58;;;;;;;5.31;100.00;100619.80;1639105;87;21518;-68
2021/12/04 10:52:46;;;;;;;20.68;14.13;;;;;;;5.05;100.00;100620.32;1640034;86;21099;-68
2021/12/04 10:55:40;;;;;;;24.00;14.83;;;;;;;5.06;100.00;100615.20;1638148;87;21117;-68
2021/12/04 11:03:35;;;;;;;30.02;16.50;;;;;;;5.06;100.00;100605.44;1639074;87;21511;-68
2021/12/04 11:06:40;;;;;;;27.10;16.12;;;;;;;4.95;100.00;100608.20;1637166;87;21047;-68
2021/12/04 11:25:28;;;;;;;21.65;15.03;;;;;;;4.88;100.00;100597.26;1640534;85;21550;-68
2021/12/04 11:38:36;;;;;;;26.40;16.30;;;;;;;4.70;100.00;100589.95;1640322;87;21637;-68
2021/12/04 11:44:07;;;;;;;25.45;16.75;;;;;;;4.87;100.00;100587.94;1638866;87;21087;-68
2021/12/04 11:46:48;;;;;;;25.95;17.27;;;;;;;4.84;100.00;100589.26;1638202;87;21211;-68
2021/12/04 11:49:19;;;;;;;36.90;21.85;;;;;;;4.78;100.00;100589.37;1639325;87;21073;-67
2021/12/04 11:52:00;;;;;;;28.02;18.77;;;;;;;4.82;100.00;100591.00;1640006;87;21107;-68
2021/12/04 11:54:32;;;;;;;30.10;19.90;;;;;;;4.70;100.00;100592.50;1661017;86;21118;-68
2021/12/04 11:57:04;;;;;;;23.32;13.65;;;;;;;4.71;100.00;100590.38;1652893;86;21083;-67
2021/12/04 11:59:33;;;;;;;20.37;13.15;;;;;;;4.73;100.00;100583.53;1663413;84;21137;-68
2021/12/04 12:02:04;;;;;;;22.90;14.45;;;;;;;4.73;100.00;100583.53;1674462;86;21058;-68
2021/12/04 12:04:43;;;;;;;17.25;12.63;;;;;;;4.83;100.00;100581.22;1674227;85;21098;-68
2021/12/04 12:07:18;;;;;;;22.32;12.93;;;;;;;4.73;100.00;100579.27;1674006;84;21138;-68
2021/12/04 12:09:47;;;;;;;20.82;13.30;;;;;;;4.61;100.00;100590.97;1671793;84;21050;-68
2021/12/04 12:12:17;;;;;;;20.10;13.18;;;;;;;4.57;100.00;100601.66;1673444;85;21019;-68
2021/12/04 12:14:53;;;;;;;18.35;12.88;;;;;;;4.51;100.00;100601.77;1670279;85;21109;-68
2021/12/04 12:17:36;;;;;;;18.45;12.37;;;;;;;4.60;100.00;100603.30;1644064;86;21100;-68
2021/12/04 12:20:08;;;;;;;20.40;13.95;;;;;;;4.49;100.00;100613.69;1662825;85;21539;-68
2021/12/04 12:25:50;;;;;;;19.20;12.65;;;;;;;4.50;100.00;100614.53;1674301;85;21062;-68
2021/12/04 12:36:31;;;;;;;18.45;12.65;;;;;;;4.42;100.00;100595.56;1670572;86;21066;-67
2021/12/04 12:39:11;;;;;;;20.77;12.68;;;;;;;4.46;100.00;100597.20;1673580;84;21043;-68
2021/12/04 12:41:46;;;;;;;18.95;12.63;;;;;;;4.46;100.00;100579.35;1670168;85;21598;-68
2021/12/04 12:44:26;;;;;;;21.37;13.45;;;;;;;4.49;100.00;100588.20;1673152;85;21090;-67
2021/12/04 12:47:11;;;;;;;19.92;13.38;;;;;;;4.50;100.00;100586.08;1674908;84;21440;-68
2021/12/04 12:49:44;;;;;;;20.32;12.93;;;;;;;4.45;100.00;100587.02;1646264;86;22778;-68
2021/12/04 12:52:21;;;;;;;20.52;12.35;;;;;;;4.47;100.00;100582.73;1674159;85;21053;-68
2021/12/04 12:55:06;;;;;;;20.85;13.15;;;;;;;4.46;100.00;100580.63;1673948;85;21712;-67
2021/12/04 12:57:43;;;;;;;21.87;13.80;;;;;;;4.49;100.00;100585.66;1674072;85;21019;-68
2021/12/04 13:11:59;;;;;;;23.25;14.68;;;;;;;4.61;100.00;100608.38;1671887;86;21066;-68
2021/12/04 13:14:45;;;;;;;21.70;14.28;;;;;;;4.61;100.00;100602.00;1672637;86;21082;-67
2021/12/04 13:17:20;;;;;;;21.80;13.85;;;;;;;4.66;100.00;100602.35;1674661;85;21043;-68
2021/12/04 13:19:53;;;;;;;21.15;13.68;;;;;;;4.71;100.00;100606.95;1673168;85;21070;-68
2021/12/04 13:22:27;;;;;;;22.87;13.78;;;;;;;4.68;100.00;100601.45;1674210;86;21586;-68
2021/12/04 13:24:58;;;;;;;19.90;11.65;;;;;;;4.66;100.00;100602.35;1664402;86;21051;-68
2021/12/04 13:30:01;;;;;;;18.92;11.73;;;;;;;4.55;100.00;100604.66;1652555;85;21116;-68
2021/12/04 13:32:37;;;;;;;;;;;;;;;4.58;100.00;100611.41;1669806;85;21511;-68
2021/12/04 13:35:15;;;;;;;19.30;12.10;;;;;;;4.62;100.00;100609.21;1667847;85;20138;-68
2021/12/04 13:37:44;;;;;;;17.12;11.95;;;;;;;4.59;100.00;100613.94;1666626;85;21110;-68
2021/12/04 13:40:15;;;;;;;20.75;12.70;;;;;;;4.59;100.00;100609.28;1668850;85;21507;-66
2021/12/04 13:42:44;;;;;;;17.05;11.80;;;;;;;4.57;100.00;100604.20;1665540;86;21117;-67
2021/12/04 13:45:15;;;;;;;19.40;12.40;;;;;;;4.58;100.00;100602.48;1673918;85;21047;-68
2021/12/04 13:47:46;;;;;;;18.10;12.35;;;;;;;4.57;100.00;100595.28;1673421;85;21066;-68
2021/12/04 13:53:04;;;;;;;23.45;14.07;;;;;;;4.54;100.00;100600.86;1673957;84;21059;-68
2021/12/04 13:55:38;;;;;;;21.00;14.05;;;;;;;4.49;100.00;100603.94;1673749;86;21066;-68
2021/12/04 13:58:06;;;;;;;19.98;13.13;;;;;;;4.48;100.00;100602.24;1674835;84;21050;-68
2021/12/04 14:00:33;;;;;;;19.40;12.65;;;;;;;4.44;100.00;100602.75;1674371;86;21543;-68
2021/12/04 14:03:00;;;;;;;25.15;13.45;;;;;;;4.43;100.00;100599.78;1674463;86;21114;-68
2021/12/04 14:05:28;;;;;;;22.35;14.28;;;;;;;4.43;100.00;100597.23;1673714;84;21106;-68
2021/12/04 14:08:00;;;;;;;22.00;13.78;;;;;;;4.37;100.00;100594.79;1673729;86;21066;-68
2021/12/04 14:10:37;;;;;;;22.67;13.85;;;;;;;4.39;100.00;100594.33;1674754;84;21070;-68
2021/12/04 14:13:05;;;;;;;20.77;12.43;;;;;;;4.36;100.00;100588.86;1675028;86;21107;-69
2021/12/04 14:15:35;;;;;;;19.17;11.90;;;;;;;4.38;100.00;100588.40;1673637;84;21054;-69
2021/12/04 14:18:09;;;;;;;18.73;12.20;;;;;;;4.40;100.00;100596.03;1683969;84;21615;-67
2021/12/04 14:20:40;;;;;;;22.37;12.23;;;;;;;4.37;100.00;100596.06;1698849;83;21034;-67
2021/12/04 14:23:08;;;;;;;19.05;13.10;;;;;;;4.40;100.00;100599.85;1675177;84;21071;-67
2021/12/04 14:25:43;;;;;;;18.98;12.05;;;;;;;4.41;100.00;100593.88;1691141;83;21055;-67
2021/12/04 14:28:17;;;;;;;20.82;12.58;;;;;;;4.43;100.00;100601.50;1698001;83;21101;-67